sensor_id;sensor_type;location;lat;lon;timestamp;pressure;altitude;pressure_sealevel;temperature;humidity
20622;BME280;10470;42.670;23.354;2023-05-03T00:00:56;95179.81;;;13.87;61.38
20622;BME280;10470;42.670;23.354;2023-05-03T00:03:25;95187.16;;;13.71;60.80
20622;BME280;10470;42.670;23.354;2023-05-03T00:05:50;95190.19;;;13.83;60.60
20622;BME280;10470;42.670;23.354;2023-05-03T00:08:16;95183.78;;;13.76;61.09
20622;BME280;10470;42.670;23.354;2023-05-03T00:10:41;95197.19;;;13.74;61.47
20622;BME280;10470;42.670;23.354;2023-05-03T00:13:07;95190.06;;;13.49;62.20
20622;BME280;10470;42.670;23.354;2023-05-03T00:15:32;95188.69;;;13.63;63.18
20622;BME280;10470;42.670;23.354;2023-05-03T00:17:58;95188.38;;;13.61;63.69
20622;BME280;10470;42.670;23.354;2023-05-03T00:20:23;95183.97;;;13.45;64.54
20622;BME280;10470;42.670;23.354;2023-05-03T00:22:49;95185.19;;;13.44;65.59
20622;BME280;10470;42.670;23.354;2023-05-03T00:25:15;95174.84;;;13.30;65.21
20622;BME280;10470;42.670;23.354;2023-05-03T00:27:40;95187.16;;;13.35;65.37
20622;BME280;10470;42.670;23.354;2023-05-03T00:30:06;95174.50;;;13.19;65.73
20622;BME280;10470;42.670;23.354;2023-05-03T00:32:32;95187.59;;;13.24;65.97
20622;BME280;10470;42.670;23.354;2023-05-03T00:34:57;95182.72;;;13.19;66.56
20622;BME280;10470;42.670;23.354;2023-05-03T00:37:23;95176.63;;;13.05;66.84
20622;BME280;10470;42.670;23.354;2023-05-03T00:39:49;95183.47;;;13.19;66.78
20622;BME280;10470;42.670;23.354;2023-05-03T00:42:14;95183.75;;;13.12;67.34
20622;BME280;10470;42.670;23.354;2023-05-03T00:44:40;95183.00;;;13.11;67.45
20622;BME280;10470;42.670;23.354;2023-05-03T00:47:05;95178.91;;;13.25;67.21
20622;BME280;10470;42.670;23.354;2023-05-03T00:49:32;95182.41;;;13.07;67.43
20622;BME280;10470;42.670;23.354;2023-05-03T00:51:57;95178.59;;;13.05;67.41
20622;BME280;10470;42.670;23.354;2023-05-03T00:54:27;95185.75;;;13.02;66.28
20622;BME280;10470;42.670;23.354;2023-05-03T00:56:53;95183.31;;;13.14;66.07
20622;BME280;10470;42.670;23.354;2023-05-03T00:59:19;95181.47;;;12.92;65.84
20622;BME280;10470;42.670;23.354;2023-05-03T01:01:49;95176.91;;;12.98;65.82
20622;BME280;10470;42.670;23.354;2023-05-03T01:04:16;95186.94;;;12.92;65.49
20622;BME280;10470;42.670;23.354;2023-05-03T01:07:07;95177.03;;;12.85;65.12
20622;BME280;10470;42.670;23.354;2023-05-03T01:12:29;95164.59;;;13.03;64.66
20622;BME280;10470;42.670;23.354;2023-05-03T01:15:15;95166.25;;;12.91;64.85
20622;BME280;10470;42.670;23.354;2023-05-03T01:17:49;95156.19;;;12.79;65.58
20622;BME280;10470;42.670;23.354;2023-05-03T01:20:21;95161.22;;;12.80;65.98
20622;BME280;10470;42.670;23.354;2023-05-03T01:25:24;95152.09;;;12.74;66.19
20622;BME280;10470;42.670;23.354;2023-05-03T01:27:51;95158.16;;;12.78;65.99
20622;BME280;10470;42.670;23.354;2023-05-03T01:30:16;95161.06;;;12.75;66.65
20622;BME280;10470;42.670;23.354;2023-05-03T01:32:54;95163.94;;;12.80;66.60
20622;BME280;10470;42.670;23.354;2023-05-03T01:35:39;95160.94;;;12.87;66.63
20622;BME280;10470;42.670;23.354;2023-05-03T01:38:07;95163.19;;;12.89;66.91
20622;BME280;10470;42.670;23.354;2023-05-03T01:40:39;95160.78;;;12.82;67.04
20622;BME280;10470;42.670;23.354;2023-05-03T01:43:07;95148.91;;;12.94;66.80
20622;BME280;10470;42.670;23.354;2023-05-03T01:45:35;95153.16;;;12.86;67.50
20622;BME280;10470;42.670;23.354;2023-05-03T01:48:00;95146.75;;;12.71;67.95
20622;BME280;10470;42.670;23.354;2023-05-03T01:50:26;95143.84;;;12.56;68.07
20622;BME280;10470;42.670;23.354;2023-05-03T01:52:51;95139.94;;;12.66;67.98
20622;BME280;10470;42.670;23.354;2023-05-03T01:55:17;95133.84;;;12.62;69.36
20622;BME280;10470;42.670;23.354;2023-05-03T01:57:43;95139.34;;;12.80;68.73
20622;BME280;10470;42.670;23.354;2023-05-03T02:00:09;95128.25;;;12.75;68.91
20622;BME280;10470;42.670;23.354;2023-05-03T02:02:35;95120.91;;;12.53;68.98
20622;BME280;10470;42.670;23.354;2023-05-03T02:05:01;95114.81;;;12.49;70.23
20622;BME280;10470;42.670;23.354;2023-05-03T02:07:27;95111.59;;;12.32;70.82
20622;BME280;10470;42.670;23.354;2023-05-03T02:09:53;95108.41;;;12.34;71.84
20622;BME280;10470;42.670;23.354;2023-05-03T02:12:18;95109.63;;;12.42;73.26
20622;BME280;10470;42.670;23.354;2023-05-03T02:14:43;95101.84;;;12.31;74.53
20622;BME280;10470;42.670;23.354;2023-05-03T02:17:09;95095.06;;;12.45;74.75
20622;BME280;10470;42.670;23.354;2023-05-03T02:19:35;95108.97;;;12.19;76.42
20622;BME280;10470;42.670;23.354;2023-05-03T02:22:00;95102.69;;;12.10;78.60
20622;BME280;10470;42.670;23.354;2023-05-03T02:24:26;95096.00;;;12.11;78.77
20622;BME280;10470;42.670;23.354;2023-05-03T02:26:51;95090.72;;;12.16;79.60
20622;BME280;10470;42.670;23.354;2023-05-03T02:29:17;95094.72;;;12.24;79.91
20622;BME280;10470;42.670;23.354;2023-05-03T02:31:42;95102.75;;;12.28;79.82
20622;BME280;10470;42.670;23.354;2023-05-03T02:34:08;95091.03;;;12.09;80.31
20622;BME280;10470;42.670;23.354;2023-05-03T02:36:33;95094.66;;;12.15;80.21
20622;BME280;10470;42.670;23.354;2023-05-03T02:38:59;95099.56;;;12.20;79.11
20622;BME280;10470;42.670;23.354;2023-05-03T02:41:25;95110.81;;;12.32;78.21
20622;BME280;10470;42.670;23.354;2023-05-03T02:43:50;95106.66;;;12.18;80.44
20622;BME280;10470;42.670;23.354;2023-05-03T02:46:15;95095.09;;;12.05;80.38
20622;BME280;10470;42.670;23.354;2023-05-03T02:48:41;95110.31;;;12.24;80.96
20622;BME280;10470;42.670;23.354;2023-05-03T02:51:06;95104.88;;;12.24;81.24
20622;BME280;10470;42.670;23.354;2023-05-03T02:53:32;95092.78;;;11.94;81.94
20622;BME280;10470;42.670;23.354;2023-05-03T02:55:57;95104.38;;;12.16;80.92
20622;BME280;10470;42.670;23.354;2023-05-03T02:58:23;95090.56;;;12.11;80.58
20622;BME280;10470;42.670;23.354;2023-05-03T03:00:48;95102.13;;;12.24;80.47
20622;BME280;10470;42.670;23.354;2023-05-03T03:03:14;95093.97;;;12.33;79.95
20622;BME280;10470;42.670;23.354;2023-05-03T03:05:39;95106.88;;;12.33;79.40
20622;BME280;10470;42.670;23.354;2023-05-03T03:08:04;95108.34;;;12.15;80.01
20622;BME280;10470;42.670;23.354;2023-05-03T03:10:30;95105.50;;;12.28;79.96
20622;BME280;10470;42.670;23.354;2023-05-03T03:12:56;95114.00;;;12.30;80.87
20622;BME280;10470;42.670;23.354;2023-05-03T03:15:21;95109.44;;;12.27;79.94
20622;BME280;10470;42.670;23.354;2023-05-03T03:17:47;95119.16;;;12.37;80.24
20622;BME280;10470;42.670;23.354;2023-05-03T03:20:12;95112.78;;;12.22;80.77
20622;BME280;10470;42.670;23.354;2023-05-03T03:22:38;95117.22;;;12.38;80.67
20622;BME280;10470;42.670;23.354;2023-05-03T03:25:05;95117.97;;;12.38;80.69
20622;BME280;10470;42.670;23.354;2023-05-03T03:27:31;95124.84;;;12.52;79.42
20622;BME280;10470;42.670;23.354;2023-05-03T03:29:56;95124.63;;;12.37;81.22
20622;BME280;10470;42.670;23.354;2023-05-03T03:32:22;95142.09;;;12.31;81.98
20622;BME280;10470;42.670;23.354;2023-05-03T03:35:03;95138.75;;;12.36;82.75
20622;BME280;10470;42.670;23.354;2023-05-03T03:37:49;95143.75;;;12.37;83.63
20622;BME280;10470;42.670;23.354;2023-05-03T03:40:35;95152.28;;;12.39;83.72
20622;BME280;10470;42.670;23.354;2023-05-03T03:43:00;95154.13;;;12.11;84.16
20622;BME280;10470;42.670;23.354;2023-05-03T03:45:26;95147.38;;;11.94;85.57
20622;BME280;10470;42.670;23.354;2023-05-03T03:47:51;95151.28;;;12.15;86.19
20622;BME280;10470;42.670;23.354;2023-05-03T03:50:16;95162.28;;;12.02;86.82
20622;BME280;10470;42.670;23.354;2023-05-03T03:52:43;95152.03;;;12.15;86.40
20622;BME280;10470;42.670;23.354;2023-05-03T03:55:09;95157.72;;;11.99;88.21
20622;BME280;10470;42.670;23.354;2023-05-03T03:57:34;95169.91;;;12.07;87.34
20622;BME280;10470;42.670;23.354;2023-05-03T04:00:00;95170.81;;;12.04;88.42
20622;BME280;10470;42.670;23.354;2023-05-03T04:02:26;95170.09;;;12.13;86.84
20622;BME280;10470;42.670;23.354;2023-05-03T04:04:51;95172.00;;;12.03;86.51
20622;BME280;10470;42.670;23.354;2023-05-03T04:07:17;95170.44;;;11.93;87.39
20622;BME280;10470;42.670;23.354;2023-05-03T04:09:42;95178.38;;;12.00;87.14
20622;BME280;10470;42.670;23.354;2023-05-03T04:12:08;95189.88;;;12.26;85.83
20622;BME280;10470;42.670;23.354;2023-05-03T04:14:33;95186.53;;;12.22;86.06
20622;BME280;10470;42.670;23.354;2023-05-03T04:16:59;95178.28;;;12.13;87.13
20622;BME280;10470;42.670;23.354;2023-05-03T04:19:25;95197.97;;;12.30;86.70
20622;BME280;10470;42.670;23.354;2023-05-03T04:21:51;95197.16;;;11.98;86.70
20622;BME280;10470;42.670;23.354;2023-05-03T04:24:17;95184.78;;;11.84;88.52
20622;BME280;10470;42.670;23.354;2023-05-03T04:26:42;95185.03;;;11.99;87.55
20622;BME280;10470;42.670;23.354;2023-05-03T04:29:08;95200.78;;;12.17;87.53
20622;BME280;10470;42.670;23.354;2023-05-03T04:31:36;95210.63;;;11.92;90.12
20622;BME280;10470;42.670;23.354;2023-05-03T04:34:01;95212.94;;;11.94;100.00
20622;BME280;10470;42.670;23.354;2023-05-03T04:36:27;95205.66;;;11.78;100.00
20622;BME280;10470;42.670;23.354;2023-05-03T04:38:54;95205.00;;;11.87;100.00
20622;BME280;10470;42.670;23.354;2023-05-03T04:41:20;95202.03;;;11.81;100.00
20622;BME280;10470;42.670;23.354;2023-05-03T04:43:46;95209.03;;;11.82;100.00
20622;BME280;10470;42.670;23.354;2023-05-03T04:46:12;95215.06;;;11.77;100.00
20622;BME280;10470;42.670;23.354;2023-05-03T04:48:37;95222.03;;;11.56;100.00
20622;BME280;10470;42.670;23.354;2023-05-03T04:51:03;95226.88;;;11.74;100.00
20622;BME280;10470;42.670;23.354;2023-05-03T04:53:28;95240.13;;;11.63;100.00
20622;BME280;10470;42.670;23.354;2023-05-03T04:55:55;95223.25;;;11.55;100.00
20622;BME280;10470;42.670;23.354;2023-05-03T04:58:20;95241.59;;;11.54;100.00
20622;BME280;10470;42.670;23.354;2023-05-03T05:00:45;95241.03;;;11.59;100.00
20622;BME280;10470;42.670;23.354;2023-05-03T05:03:11;95243.34;;;11.48;100.00
20622;BME280;10470;42.670;23.354;2023-05-03T05:05:36;95246.16;;;11.57;100.00
20622;BME280;10470;42.670;23.354;2023-05-03T05:08:02;95259.81;;;11.57;100.00
20622;BME280;10470;42.670;23.354;2023-05-03T05:10:27;95263.88;;;11.40;100.00
20622;BME280;10470;42.670;23.354;2023-05-03T05:12:52;95257.38;;;11.25;100.00
20622;BME280;10470;42.670;23.354;2023-05-03T05:15:18;95265.75;;;11.30;100.00
20622;BME280;10470;42.670;23.354;2023-05-03T05:17:43;95259.94;;;11.41;100.00
20622;BME280;10470;42.670;23.354;2023-05-03T05:20:09;95262.47;;;11.35;100.00
20622;BME280;10470;42.670;23.354;2023-05-03T05:22:37;95257.78;;;11.36;100.00
20622;BME280;10470;42.670;23.354;2023-05-03T05:25:04;95260.91;;;11.47;100.00
20622;BME280;10470;42.670;23.354;2023-05-03T05:27:31;95264.78;;;11.37;100.00
20622;BME280;10470;42.670;23.354;2023-05-03T05:29:57;95265.69;;;11.56;100.00
20622;BME280;10470;42.670;23.354;2023-05-03T05:32:22;95263.28;;;11.58;100.00
20622;BME280;10470;42.670;23.354;2023-05-03T05:34:47;95278.00;;;11.61;100.00
20622;BME280;10470;42.670;23.354;2023-05-03T05:37:22;95269.81;;;11.95;100.00
20622;BME280;10470;42.670;23.354;2023-05-03T05:39:48;95263.00;;;11.78;100.00
20622;BME280;10470;42.670;23.354;2023-05-03T05:42:13;95265.59;;;11.81;100.00
20622;BME280;10470;42.670;23.354;2023-05-03T05:44:39;95268.97;;;11.86;100.00
20622;BME280;10470;42.670;23.354;2023-05-03T05:47:05;95277.88;;;12.21;100.00
20622;BME280;10470;42.670;23.354;2023-05-03T05:49:31;95265.69;;;12.35;100.00
20622;BME280;10470;42.670;23.354;2023-05-03T05:51:56;95264.22;;;12.21;100.00
20622;BME280;10470;42.670;23.354;2023-05-03T05:54:22;95261.69;;;12.05;100.00
20622;BME280;10470;42.670;23.354;2023-05-03T05:56:47;95262.19;;;11.90;100.00
20622;BME280;10470;42.670;23.354;2023-05-03T05:59:13;95261.06;;;12.00;100.00
20622;BME280;10470;42.670;23.354;2023-05-03T06:01:38;95264.09;;;11.80;100.00
20622;BME280;10470;42.670;23.354;2023-05-03T06:04:11;95269.75;;;11.86;100.00
20622;BME280;10470;42.670;23.354;2023-05-03T06:06:36;95267.44;;;11.85;100.00
20622;BME280;10470;42.670;23.354;2023-05-03T06:09:02;95260.69;;;11.89;100.00
20622;BME280;10470;42.670;23.354;2023-05-03T06:11:27;95262.31;;;11.87;100.00
20622;BME280;10470;42.670;23.354;2023-05-03T06:13:54;95261.38;;;12.02;100.00
20622;BME280;10470;42.670;23.354;2023-05-03T06:16:21;95255.31;;;11.86;100.00
20622;BME280;10470;42.670;23.354;2023-05-03T06:18:47;95242.16;;;11.71;100.00
20622;BME280;10470;42.670;23.354;2023-05-03T06:21:12;95249.97;;;11.82;100.00
20622;BME280;10470;42.670;23.354;2023-05-03T06:23:37;95255.53;;;11.91;100.00
20622;BME280;10470;42.670;23.354;2023-05-03T06:26:04;95251.91;;;12.16;100.00
20622;BME280;10470;42.670;23.354;2023-05-03T06:28:30;95257.19;;;12.11;100.00
20622;BME280;10470;42.670;23.354;2023-05-03T06:30:55;95257.09;;;12.23;100.00
20622;BME280;10470;42.670;23.354;2023-05-03T06:33:21;95254.84;;;12.22;100.00
20622;BME280;10470;42.670;23.354;2023-05-03T06:35:46;95246.38;;;12.07;100.00
20622;BME280;10470;42.670;23.354;2023-05-03T06:38:12;95241.53;;;12.11;100.00
20622;BME280;10470;42.670;23.354;2023-05-03T06:40:38;95234.66;;;12.29;100.00
20622;BME280;10470;42.670;23.354;2023-05-03T06:43:06;95237.09;;;12.27;100.00
20622;BME280;10470;42.670;23.354;2023-05-03T06:45:31;95241.59;;;12.20;100.00
20622;BME280;10470;42.670;23.354;2023-05-03T06:47:57;95235.13;;;12.58;100.00
20622;BME280;10470;42.670;23.354;2023-05-03T06:50:22;95234.16;;;12.43;100.00
20622;BME280;10470;42.670;23.354;2023-05-03T06:52:48;95229.38;;;12.65;100.00
20622;BME280;10470;42.670;23.354;2023-05-03T06:55:15;95217.13;;;12.39;100.00
20622;BME280;10470;42.670;23.354;2023-05-03T06:57:41;95217.81;;;12.61;100.00
20622;BME280;10470;42.670;23.354;2023-05-03T07:00:12;95217.81;;;12.61;100.00
20622;BME280;10470;42.670;23.354;2023-05-03T07:02:37;95218.69;;;12.49;100.00
20622;BME280;10470;42.670;23.354;2023-05-03T07:05:03;95209.25;;;12.50;100.00
20622;BME280;10470;42.670;23.354;2023-05-03T07:07:29;95214.94;;;12.56;100.00
20622;BME280;10470;42.670;23.354;2023-05-03T07:09:55;95212.56;;;12.36;100.00
20622;BME280;10470;42.670;23.354;2023-05-03T07:12:20;95211.41;;;12.55;100.00
20622;BME280;10470;42.670;23.354;2023-05-03T07:14:52;95226.09;;;12.80;100.00
20622;BME280;10470;42.670;23.354;2023-05-03T07:17:17;95228.50;;;12.68;100.00
20622;BME280;10470;42.670;23.354;2023-05-03T07:19:42;95227.53;;;12.62;100.00
20622;BME280;10470;42.670;23.354;2023-05-03T07:22:08;95227.00;;;12.77;100.00
20622;BME280;10470;42.670;23.354;2023-05-03T07:24:34;95214.41;;;12.88;100.00
20622;BME280;10470;42.670;23.354;2023-05-03T07:26:59;95213.97;;;12.99;100.00
20622;BME280;10470;42.670;23.354;2023-05-03T07:29:25;95221.81;;;12.79;100.00
20622;BME280;10470;42.670;23.354;2023-05-03T07:31:51;95229.19;;;12.60;100.00
20622;BME280;10470;42.670;23.354;2023-05-03T07:34:17;95227.38;;;12.57;100.00
20622;BME280;10470;42.670;23.354;2023-05-03T07:36:42;95218.59;;;12.62;100.00
20622;BME280;10470;42.670;23.354;2023-05-03T07:39:08;95216.66;;;12.72;100.00
20622;BME280;10470;42.670;23.354;2023-05-03T07:41:33;95208.34;;;12.94;100.00
20622;BME280;10470;42.670;23.354;2023-05-03T07:43:59;95219.75;;;12.92;100.00
20622;BME280;10470;42.670;23.354;2023-05-03T07:46:24;95210.28;;;12.84;100.00
20622;BME280;10470;42.670;23.354;2023-05-03T07:48:50;95221.25;;;12.93;100.00
20622;BME280;10470;42.670;23.354;2023-05-03T07:51:15;95205.59;;;12.84;100.00
20622;BME280;10470;42.670;23.354;2023-05-03T07:53:41;95212.59;;;12.85;100.00
20622;BME280;10470;42.670;23.354;2023-05-03T07:56:06;95217.97;;;13.07;100.00
20622;BME280;10470;42.670;23.354;2023-05-03T07:58:32;95212.94;;;13.15;100.00
20622;BME280;10470;42.670;23.354;2023-05-03T08:00:57;95210.84;;;13.10;100.00
20622;BME280;10470;42.670;23.354;2023-05-03T08:03:23;95218.03;;;13.44;100.00
20622;BME280;10470;42.670;23.354;2023-05-03T08:05:48;95234.00;;;13.46;100.00
20622;BME280;10470;42.670;23.354;2023-05-03T08:08:14;95228.38;;;13.31;100.00
20622;BME280;10470;42.670;23.354;2023-05-03T08:10:40;95234.16;;;13.51;100.00
20622;BME280;10470;42.670;23.354;2023-05-03T08:13:06;95228.09;;;13.66;100.00
20622;BME280;10470;42.670;23.354;2023-05-03T08:15:32;95223.81;;;13.74;100.00
20622;BME280;10470;42.670;23.354;2023-05-03T08:17:58;95223.53;;;13.63;100.00
20622;BME280;10470;42.670;23.354;2023-05-03T08:20:24;95228.53;;;13.83;100.00
20622;BME280;10470;42.670;23.354;2023-05-03T08:22:52;95228.13;;;14.45;100.00
20622;BME280;10470;42.670;23.354;2023-05-03T08:25:21;95226.00;;;14.92;100.00
20622;BME280;10470;42.670;23.354;2023-05-03T08:27:47;95215.97;;;14.79;100.00
20622;BME280;10470;42.670;23.354;2023-05-03T08:30:13;95229.47;;;14.50;100.00
20622;BME280;10470;42.670;23.354;2023-05-03T08:32:39;95224.03;;;14.83;100.00
20622;BME280;10470;42.670;23.354;2023-05-03T08:35:05;95230.00;;;14.81;100.00
20622;BME280;10470;42.670;23.354;2023-05-03T08:37:37;95239.94;;;15.03;100.00
20622;BME280;10470;42.670;23.354;2023-05-03T08:40:04;95247.97;;;14.03;100.00
20622;BME280;10470;42.670;23.354;2023-05-03T08:42:31;95234.94;;;14.50;100.00
20622;BME280;10470;42.670;23.354;2023-05-03T08:44:58;95228.34;;;15.08;100.00
20622;BME280;10470;42.670;23.354;2023-05-03T08:47:23;95226.06;;;15.31;100.00
20622;BME280;10470;42.670;23.354;2023-05-03T08:49:50;95228.88;;;15.21;100.00
20622;BME280;10470;42.670;23.354;2023-05-03T08:52:17;95222.09;;;15.32;100.00
20622;BME280;10470;42.670;23.354;2023-05-03T08:54:45;95236.13;;;15.34;100.00
20622;BME280;10470;42.670;23.354;2023-05-03T08:57:13;95242.34;;;15.34;100.00
20622;BME280;10470;42.670;23.354;2023-05-03T08:59:49;95240.38;;;15.35;100.00
20622;BME280;10470;42.670;23.354;2023-05-03T09:02:16;95235.41;;;15.48;100.00
20622;BME280;10470;42.670;23.354;2023-05-03T09:04:41;95241.59;;;15.82;100.00
20622;BME280;10470;42.670;23.354;2023-05-03T09:07:09;95237.34;;;15.57;100.00
20622;BME280;10470;42.670;23.354;2023-05-03T09:09:35;95240.75;;;15.66;100.00
20622;BME280;10470;42.670;23.354;2023-05-03T09:12:01;95232.41;;;15.61;100.00
20622;BME280;10470;42.670;23.354;2023-05-03T09:14:27;95226.50;;;15.53;100.00
20622;BME280;10470;42.670;23.354;2023-05-03T09:16:52;95221.06;;;15.68;100.00
20622;BME280;10470;42.670;23.354;2023-05-03T09:19:18;95216.97;;;16.47;100.00
20622;BME280;10470;42.670;23.354;2023-05-03T09:21:45;95212.91;;;16.42;100.00
20622;BME280;10470;42.670;23.354;2023-05-03T09:24:20;95209.38;;;16.56;100.00
20622;BME280;10470;42.670;23.354;2023-05-03T09:26:48;95206.56;;;16.36;100.00
20622;BME280;10470;42.670;23.354;2023-05-03T09:29:40;95205.28;;;16.67;99.48
20622;BME280;10470;42.670;23.354;2023-05-03T09:32:05;95206.81;;;16.83;100.00
20622;BME280;10470;42.670;23.354;2023-05-03T09:34:33;95201.59;;;16.55;100.00
20622;BME280;10470;42.670;23.354;2023-05-03T09:36:59;95198.59;;;17.03;100.00
20622;BME280;10470;42.670;23.354;2023-05-03T09:39:25;95189.78;;;17.19;98.94
20622;BME280;10470;42.670;23.354;2023-05-03T09:41:51;95190.13;;;17.27;96.12
20622;BME280;10470;42.670;23.354;2023-05-03T09:44:17;95181.34;;;16.73;100.00
20622;BME280;10470;42.670;23.354;2023-05-03T09:47:04;95179.81;;;17.22;94.67
20622;BME280;10470;42.670;23.354;2023-05-03T09:49:31;95182.63;;;17.28;96.55
20622;BME280;10470;42.670;23.354;2023-05-03T09:51:58;95187.19;;;17.51;95.60
20622;BME280;10470;42.670;23.354;2023-05-03T09:54:25;95183.66;;;17.51;91.30
20622;BME280;10470;42.670;23.354;2023-05-03T09:56:51;95181.28;;;17.84;89.89
20622;BME280;10470;42.670;23.354;2023-05-03T09:59:19;95181.66;;;17.98;86.56
20622;BME280;10470;42.670;23.354;2023-05-03T10:01:45;95169.56;;;17.89;88.41
20622;BME280;10470;42.670;23.354;2023-05-03T10:04:14;95170.81;;;18.15;85.82
20622;BME280;10470;42.670;23.354;2023-05-03T10:06:43;95163.28;;;18.15;85.62
20622;BME280;10470;42.670;23.354;2023-05-03T10:09:16;95169.88;;;17.97;86.50
20622;BME280;10470;42.670;23.354;2023-05-03T10:11:52;95167.16;;;17.77;87.52
20622;BME280;10470;42.670;23.354;2023-05-03T10:14:20;95176.59;;;17.90;86.29
20622;BME280;10470;42.670;23.354;2023-05-03T10:16:48;95168.59;;;18.19;85.95
20622;BME280;10470;42.670;23.354;2023-05-03T10:22:03;95156.41;;;18.63;84.97
20622;BME280;10470;42.670;23.354;2023-05-03T10:24:30;95147.63;;;18.64;82.34
20622;BME280;10470;42.670;23.354;2023-05-03T10:26:56;95142.94;;;18.44;85.56
20622;BME280;10470;42.670;23.354;2023-05-03T10:29:43;95135.22;;;18.17;88.32
20622;BME280;10470;42.670;23.354;2023-05-03T10:35:03;95123.19;;;18.51;91.69
20622;BME280;10470;42.670;23.354;2023-05-03T10:37:31;95130.72;;;18.51;86.52
20622;BME280;10470;42.670;23.354;2023-05-03T10:42:31;95131.19;;;18.81;82.11
20622;BME280;10470;42.670;23.354;2023-05-03T10:44:56;95126.78;;;19.06;80.87
20622;BME280;10470;42.670;23.354;2023-05-03T10:47:25;95125.41;;;18.79;80.32
20622;BME280;10470;42.670;23.354;2023-05-03T10:55:11;95126.63;;;18.09;86.16
20622;BME280;10470;42.670;23.354;2023-05-03T10:57:40;95130.44;;;18.49;87.45
20622;BME280;10470;42.670;23.354;2023-05-03T11:00:32;95134.84;;;18.29;89.94
20622;BME280;10470;42.670;23.354;2023-05-03T11:05:46;95116.19;;;18.56;88.91
20622;BME280;10470;42.670;23.354;2023-05-03T11:08:17;95120.03;;;18.70;89.85
20622;BME280;10470;42.670;23.354;2023-05-03T11:10:44;95121.16;;;18.46;86.28
20622;BME280;10470;42.670;23.354;2023-05-03T11:13:10;95113.16;;;18.54;85.96
20622;BME280;10470;42.670;23.354;2023-05-03T11:15:36;95120.94;;;18.87;84.05
20622;BME280;10470;42.670;23.354;2023-05-03T11:18:04;95117.06;;;18.36;82.19
20622;BME280;10470;42.670;23.354;2023-05-03T11:20:30;95113.59;;;18.41;85.68
20622;BME280;10470;42.670;23.354;2023-05-03T11:22:55;95110.44;;;18.60;87.27
20622;BME280;10470;42.670;23.354;2023-05-03T11:25:21;95103.00;;;18.71;91.20
20622;BME280;10470;42.670;23.354;2023-05-03T11:27:46;95092.84;;;18.94;89.29
20622;BME280;10470;42.670;23.354;2023-05-03T11:30:12;95087.59;;;18.96;90.50
20622;BME280;10470;42.670;23.354;2023-05-03T11:32:40;95077.06;;;18.58;87.17
20622;BME280;10470;42.670;23.354;2023-05-03T11:35:06;95104.41;;;18.98;86.71
20622;BME280;10470;42.670;23.354;2023-05-03T11:37:32;95098.97;;;19.21;83.85
20622;BME280;10470;42.670;23.354;2023-05-03T11:39:59;95097.50;;;18.34;87.90
20622;BME280;10470;42.670;23.354;2023-05-03T11:42:25;95094.72;;;19.20;88.18
20622;BME280;10470;42.670;23.354;2023-05-03T11:44:54;95107.69;;;20.86;77.97
20622;BME280;10470;42.670;23.354;2023-05-03T11:47:23;95092.88;;;20.56;75.56
20622;BME280;10470;42.670;23.354;2023-05-03T11:49:56;95070.69;;;19.65;78.38
20622;BME280;10470;42.670;23.354;2023-05-03T11:52:25;95073.69;;;19.51;82.31
20622;BME280;10470;42.670;23.354;2023-05-03T11:54:55;95084.31;;;18.92;87.14
20622;BME280;10470;42.670;23.354;2023-05-03T11:57:21;95078.56;;;19.02;89.09
20622;BME280;10470;42.670;23.354;2023-05-03T11:59:47;95092.47;;;19.24;82.24
20622;BME280;10470;42.670;23.354;2023-05-03T12:02:15;95084.06;;;20.46;79.29
20622;BME280;10470;42.670;23.354;2023-05-03T12:04:42;95080.28;;;21.41;71.90
20622;BME280;10470;42.670;23.354;2023-05-03T12:07:11;95084.28;;;21.46;68.69
20622;BME280;10470;42.670;23.354;2023-05-03T12:09:38;95077.81;;;20.12;73.41
20622;BME280;10470;42.670;23.354;2023-05-03T12:12:04;95081.03;;;19.71;76.80
20622;BME280;10470;42.670;23.354;2023-05-03T12:14:58;95083.84;;;18.99;83.61
20622;BME280;10470;42.670;23.354;2023-05-03T12:17:36;95093.84;;;18.91;85.67
20622;BME280;10470;42.670;23.354;2023-05-03T12:20:21;95077.22;;;18.43;89.77
20622;BME280;10470;42.670;23.354;2023-05-03T12:22:52;95072.56;;;18.60;90.51
20622;BME280;10470;42.670;23.354;2023-05-03T12:25:18;95070.25;;;18.47;95.97
20622;BME280;10470;42.670;23.354;2023-05-03T12:27:44;95070.53;;;17.86;100.00
20622;BME280;10470;42.670;23.354;2023-05-03T12:30:10;95070.25;;;17.58;100.00
20622;BME280;10470;42.670;23.354;2023-05-03T12:32:36;95073.38;;;17.71;100.00
20622;BME280;10470;42.670;23.354;2023-05-03T12:35:06;95070.47;;;17.54;100.00
20622;BME280;10470;42.670;23.354;2023-05-03T12:37:34;95060.63;;;17.47;100.00
20622;BME280;10470;42.670;23.354;2023-05-03T12:39:59;95064.66;;;17.46;100.00
20622;BME280;10470;42.670;23.354;2023-05-03T12:42:25;95061.66;;;17.50;100.00
20622;BME280;10470;42.670;23.354;2023-05-03T12:44:51;95066.19;;;17.27;100.00
20622;BME280;10470;42.670;23.354;2023-05-03T12:47:17;95064.75;;;17.11;100.00
20622;BME280;10470;42.670;23.354;2023-05-03T12:49:42;95059.94;;;17.06;100.00
20622;BME280;10470;42.670;23.354;2023-05-03T12:52:08;95049.97;;;16.88;100.00
20622;BME280;10470;42.670;23.354;2023-05-03T12:54:33;95053.69;;;16.85;100.00
20622;BME280;10470;42.670;23.354;2023-05-03T12:57:00;95056.22;;;16.89;100.00
20622;BME280;10470;42.670;23.354;2023-05-03T12:59:28;95042.13;;;16.60;100.00
20622;BME280;10470;42.670;23.354;2023-05-03T13:01:55;95047.88;;;16.63;100.00
20622;BME280;10470;42.670;23.354;2023-05-03T13:04:21;95042.25;;;16.51;100.00
20622;BME280;10470;42.670;23.354;2023-05-03T13:06:47;95054.16;;;16.63;100.00